createdAt,value
2023-01-11T00:02:29.937Z,99.97
2023-01-11T00:05:04.907Z,100.00
2023-01-11T00:07:33.593Z,100.00
2023-01-11T00:10:04.969Z,100.00
2023-01-11T00:12:33.527Z,100.00
2023-01-11T00:15:02.233Z,99.90
2023-01-11T00:17:30.915Z,100.00
2023-01-11T00:19:59.426Z,99.95
2023-01-11T00:22:29.323Z,100.00
2023-01-11T00:25:00.475Z,99.83
2023-01-11T00:27:29.045Z,99.40
2023-01-11T00:30:01.264Z,99.74
2023-01-11T00:32:32.675Z,99.64
2023-01-11T00:35:01.314Z,99.92
2023-01-11T00:37:30.144Z,100.00
2023-01-11T00:39:58.757Z,99.86
2023-01-11T00:42:48.785Z,99.75
2023-01-11T00:45:35.884Z,99.38
2023-01-11T00:48:06.200Z,99.25
2023-01-11T00:50:37.104Z,99.20
2023-01-11T00:53:06.713Z,99.08
2023-01-11T00:55:35.616Z,99.23
2023-01-11T00:58:04.858Z,99.25
2023-01-11T01:00:36.221Z,99.25
2023-01-11T01:03:04.780Z,99.44
2023-01-11T01:05:33.645Z,99.00
2023-01-11T01:08:02.414Z,99.11
2023-01-11T01:10:33.603Z,99.17
2023-01-11T01:13:20.617Z,99.27
2023-01-11T01:15:56.672Z,99.31
2023-01-11T01:18:30.512Z,99.16
2023-01-11T01:21:02.148Z,98.90
2023-01-11T01:23:30.847Z,98.92
2023-01-11T01:26:04.315Z,98.89
2023-01-11T01:28:33.502Z,98.96
2023-01-11T01:31:03.312Z,98.89
2023-01-11T01:33:34.976Z,99.03
2023-01-11T01:36:09.802Z,99.13
2023-01-11T01:38:38.401Z,99.49
2023-01-11T01:41:07.259Z,99.35
2023-01-11T01:44:07.026Z,99.62
2023-01-11T01:46:35.547Z,99.56
2023-01-11T01:49:10.022Z,99.42
2023-01-11T01:51:52.550Z,99.29
2023-01-11T01:54:25.822Z,99.23
2023-01-11T01:57:05.380Z,99.20
2023-01-11T01:59:34.381Z,99.22
2023-01-11T02:02:03.175Z,99.18
2023-01-11T02:04:42.145Z,98.87
2023-01-11T02:07:13.435Z,98.87
2023-01-11T02:09:48.895Z,99.28
2023-01-11T02:12:18.573Z,98.76
2023-01-11T02:14:49.297Z,98.29
2023-01-11T02:17:17.917Z,98.53
2023-01-11T02:20:07.797Z,98.89
2023-01-11T02:22:57.866Z,98.81
2023-01-11T02:26:14.422Z,98.64
2023-01-11T02:29:19.036Z,98.57
2023-01-11T02:32:11.260Z,98.62
2023-01-11T02:35:10.014Z,98.79
2023-01-11T02:37:47.640Z,98.65
2023-01-11T02:40:35.487Z,98.43
2023-01-11T02:43:47.003Z,98.38
2023-01-11T02:46:43.510Z,98.88
2023-01-11T02:49:47.317Z,98.59
2023-01-11T02:52:25.606Z,98.58
2023-01-11T02:55:01.050Z,99.06
2023-01-11T02:57:32.076Z,98.81
2023-01-11T03:00:02.575Z,99.07
2023-01-11T03:02:31.366Z,99.13
2023-01-11T03:04:59.992Z,99.13
2023-01-11T03:07:43.978Z,98.96
2023-01-11T03:10:30.748Z,98.90
2023-01-11T03:13:16.894Z,98.68
2023-01-11T03:16:18.687Z,98.66
2023-01-11T03:18:59.603Z,98.78
2023-01-11T03:21:57.528Z,98.81
2023-01-11T03:24:33.930Z,98.85
2023-01-11T03:27:25.725Z,98.98
2023-01-11T03:30:20.544Z,99.25
2023-01-11T03:33:11.635Z,99.29
2023-01-11T03:36:07.714Z,99.54
2023-01-11T03:39:06.053Z,99.35
2023-01-11T03:41:40.543Z,99.16
2023-01-11T03:44:13.061Z,98.95
2023-01-11T03:46:53.794Z,98.43
2023-01-11T03:49:36.803Z,99.24
2023-01-11T03:52:09.942Z,99.10
2023-01-11T03:54:40.677Z,98.72
2023-01-11T03:57:23.800Z,99.01
2023-01-11T03:59:52.418Z,99.00
2023-01-11T04:02:25.478Z,99.32
2023-01-11T04:04:54.153Z,99.23
2023-01-11T04:07:27.364Z,99.52
2023-01-11T04:09:59.012Z,99.70
2023-01-11T04:12:27.673Z,99.74
2023-01-11T04:14:56.262Z,99.05
2023-01-11T04:17:24.852Z,98.85
2023-01-11T04:19:53.479Z,99.04
2023-01-11T04:22:24.894Z,99.51
2023-01-11T04:24:53.395Z,99.88
2023-01-11T04:27:22.585Z,99.54
2023-01-11T04:29:51.146Z,99.26
2023-01-11T04:32:23.612Z,99.43
2023-01-11T04:34:52.190Z,99.89
2023-01-11T04:37:23.787Z,99.54
2023-01-11T04:39:55.532Z,99.07
2023-01-11T04:42:26.387Z,99.39
2023-01-11T04:44:54.969Z,99.94
2023-01-11T04:47:25.399Z,99.98
2023-01-11T04:49:56.661Z,100.00
2023-01-11T04:52:25.220Z,100.00
2023-01-11T04:54:54.219Z,100.00
2023-01-11T04:57:27.318Z,100.00
2023-01-11T04:59:59.019Z,100.00
2023-01-11T05:02:28.271Z,99.95
2023-01-11T05:04:56.840Z,99.21
2023-01-11T05:07:26.713Z,98.76
2023-01-11T05:09:55.331Z,98.68
2023-01-11T05:12:27.142Z,98.93
2023-01-11T05:14:59.360Z,99.19
2023-01-11T05:17:27.944Z,99.72
2023-01-11T05:20:00.101Z,99.77
2023-01-11T05:22:28.765Z,99.89
2023-01-11T05:24:57.277Z,99.98
2023-01-11T05:27:26.022Z,99.95
2023-01-11T05:29:54.523Z,99.73
2023-01-11T05:32:26.620Z,99.62
2023-01-11T05:34:55.272Z,99.97
2023-01-11T05:37:24.350Z,100.00
2023-01-11T05:39:55.498Z,100.00
2023-01-11T05:42:24.077Z,100.00
2023-01-11T05:45:11.256Z,100.00
2023-01-11T05:47:40.541Z,100.00
2023-01-11T05:50:10.191Z,100.00
2023-01-11T05:52:38.742Z,100.00
2023-01-11T05:55:08.580Z,100.00
2023-01-11T05:57:40.916Z,100.00
2023-01-11T06:00:10.686Z,100.00
2023-01-11T06:02:39.922Z,100.00
2023-01-11T06:05:09.148Z,100.00
2023-01-11T06:07:37.817Z,100.00
2023-01-11T06:10:07.898Z,100.00
2023-01-11T06:12:39.556Z,100.00
2023-01-11T06:15:08.749Z,100.00
2023-01-11T06:17:37.512Z,100.00
2023-01-11T06:20:07.075Z,100.00
2023-01-11T06:22:35.876Z,100.00
2023-01-11T06:25:07.381Z,100.00
2023-01-11T06:27:36.120Z,100.00
2023-01-11T06:30:05.062Z,100.00
2023-01-11T06:32:34.914Z,100.00
2023-01-11T06:35:03.678Z,100.00
2023-01-11T06:37:33.500Z,99.81
2023-01-11T06:40:02.174Z,99.98
2023-01-11T06:42:30.778Z,100.00
2023-01-11T06:44:59.350Z,99.59
2023-01-11T06:47:28.073Z,99.44
2023-01-11T06:49:56.673Z,99.36
2023-01-11T06:52:26.166Z,99.65
2023-01-11T06:54:54.728Z,99.36
2023-01-11T06:57:25.660Z,99.22
2023-01-11T06:59:54.792Z,99.59
2023-01-11T07:02:23.537Z,99.57
2023-01-11T07:04:52.289Z,99.25
2023-01-11T07:07:21.041Z,99.68
2023-01-11T07:09:49.660Z,99.96
2023-01-11T07:12:18.355Z,99.80
2023-01-11T07:14:46.975Z,99.75
2023-01-11T07:17:16.281Z,99.97
2023-01-11T07:19:44.819Z,100.00
2023-01-11T07:22:16.557Z,100.00
2023-01-11T07:24:46.972Z,100.00
2023-01-11T07:27:17.036Z,100.00
2023-01-11T07:29:50.369Z,100.00
2023-01-11T07:32:19.015Z,100.00
2023-01-11T07:34:51.523Z,100.00
2023-01-11T07:37:28.189Z,100.00
2023-01-11T07:40:00.287Z,100.00
2023-01-11T07:42:47.615Z,100.00
2023-01-11T07:45:19.019Z,99.87
2023-01-11T07:47:51.662Z,99.98
2023-01-11T07:50:20.284Z,100.00
2023-01-11T07:52:49.841Z,99.86
2023-01-11T07:55:22.858Z,99.46
2023-01-11T07:57:51.421Z,99.41
2023-01-11T08:00:21.886Z,99.33
2023-01-11T08:02:52.731Z,99.82
2023-01-11T08:05:21.993Z,99.93
2023-01-11T08:07:53.824Z,99.34
2023-01-11T08:10:25.638Z,98.52
2023-01-11T08:13:13.125Z,98.15
2023-01-11T08:15:45.083Z,98.09
2023-01-11T08:18:18.146Z,98.51
2023-01-11T08:20:47.980Z,99.05
2023-01-11T08:23:16.695Z,99.36
2023-01-11T08:25:45.840Z,99.79
2023-01-11T08:28:14.530Z,99.46
2023-01-11T08:30:44.486Z,99.54
2023-01-11T08:33:13.110Z,99.43
2023-01-11T08:35:42.078Z,99.48
2023-01-11T08:38:10.880Z,99.04
2023-01-11T08:40:40.805Z,98.72
2023-01-11T08:43:09.524Z,99.30
2023-01-11T08:45:38.613Z,97.89
2023-01-11T08:48:07.480Z,97.46
2023-01-11T08:50:36.011Z,98.02
2023-01-11T08:53:04.512Z,98.37
2023-01-11T08:55:33.332Z,97.18
2023-01-11T08:58:03.154Z,97.66
2023-01-11T09:00:31.552Z,98.01
2023-01-11T09:03:03.009Z,97.95
2023-01-11T09:05:32.464Z,97.43
2023-01-11T09:08:02.217Z,96.47
2023-01-11T09:10:34.639Z,96.05
2023-01-11T09:13:05.688Z,96.25
2023-01-11T09:15:35.575Z,96.91
2023-01-11T09:18:08.464Z,97.18
2023-01-11T09:20:38.084Z,97.05
2023-01-11T09:23:07.136Z,96.37
2023-01-11T09:25:37.171Z,95.83
2023-01-11T09:28:05.584Z,96.41
2023-01-11T09:30:34.047Z,96.75
2023-01-11T09:33:05.104Z,96.94
2023-01-11T09:35:35.299Z,96.44
2023-01-11T09:38:03.713Z,96.17
2023-01-11T09:41:01.536Z,95.79
2023-01-11T09:43:31.390Z,95.47
2023-01-11T09:46:08.150Z,95.73
2023-01-11T09:48:48.132Z,95.74
2023-01-11T09:51:19.337Z,95.68
2023-01-11T09:53:54.050Z,95.19
2023-01-11T09:56:28.743Z,95.22
2023-01-11T09:59:20.413Z,95.85
2023-01-11T10:02:23.582Z,95.81
2023-01-11T10:05:19.799Z,95.69
2023-01-11T10:18:29.449Z,96.33
2023-01-11T10:18:41.723Z,96.23
2023-01-11T10:21:16.725Z,95.03
2023-01-11T10:23:54.430Z,95.04
2023-01-11T10:26:30.004Z,95.08
2023-01-11T10:29:16.194Z,95.03
2023-01-11T10:32:26.058Z,93.23
2023-01-11T10:35:14.599Z,92.12
2023-01-11T10:38:05.241Z,91.55
2023-01-11T10:41:07.539Z,91.28
2023-01-11T10:43:41.865Z,90.55
2023-01-11T10:46:27.752Z,90.40
2023-01-11T10:49:26.638Z,89.33
2023-01-11T10:52:04.116Z,88.73
2023-01-11T10:54:37.401Z,88.81
2023-01-11T10:57:31.851Z,89.41
2023-01-11T11:00:19.888Z,88.87
2023-01-11T11:03:04.664Z,89.01
2023-01-11T11:06:08.363Z,89.10
2023-01-11T11:09:18.578Z,88.92
2023-01-11T11:12:33.460Z,89.39
2023-01-11T11:15:15.687Z,89.57
2023-01-11T11:17:50.592Z,88.80
2023-01-11T11:20:25.219Z,88.73
2023-01-11T11:22:55.145Z,88.73
2023-01-11T11:25:38.453Z,88.32
2023-01-11T11:28:32.515Z,88.09
2023-01-11T11:31:05.603Z,88.43
2023-01-11T11:33:37.211Z,88.44
2023-01-11T11:36:09.031Z,87.94
2023-01-11T11:38:39.972Z,87.20
2023-01-11T11:41:20.054Z,85.28
2023-01-11T11:43:48.632Z,86.15
2023-01-11T11:46:20.593Z,87.05
2023-01-11T11:49:17.516Z,87.26
2023-01-11T11:51:48.035Z,86.70
2023-01-11T11:54:27.484Z,86.88
2023-01-11T11:56:59.086Z,86.18
2023-01-11T11:59:33.312Z,85.19
2023-01-11T12:02:05.369Z,84.92
2023-01-11T12:04:55.022Z,84.77
2023-01-11T12:07:27.427Z,84.11
2023-01-11T12:10:01.166Z,83.97
2023-01-11T12:12:33.275Z,83.07
2023-01-11T12:15:16.300Z,82.77
2023-01-11T12:17:44.716Z,83.05
2023-01-11T12:20:22.436Z,83.46
2023-01-11T12:23:10.156Z,83.16
2023-01-11T12:26:21.887Z,81.74
2023-01-11T12:28:57.054Z,81.01
2023-01-11T12:31:34.599Z,80.16
2023-01-11T12:34:06.221Z,80.52
2023-01-11T12:36:44.467Z,79.57
2023-01-11T12:39:51.495Z,79.21
2023-01-11T12:42:44.457Z,79.26
2023-01-11T12:45:32.167Z,78.77
2023-01-11T12:48:37.432Z,78.35
2023-01-11T12:51:35.704Z,77.05
2023-01-11T12:54:25.671Z,75.96
2023-01-11T12:57:30.081Z,72.58
2023-01-11T13:00:43.458Z,71.44
2023-01-11T13:03:11.880Z,71.78
2023-01-11T13:06:00.874Z,71.52
2023-01-11T13:08:58.056Z,71.82
2023-01-11T13:11:49.103Z,71.70
2023-01-11T13:14:42.237Z,71.24
2023-01-11T13:17:10.550Z,70.53
2023-01-11T13:20:01.379Z,70.89
2023-01-11T13:22:35.791Z,70.44
2023-01-11T13:25:19.219Z,69.69
2023-01-11T13:27:49.936Z,68.85
2023-01-11T13:30:20.339Z,69.18
2023-01-11T13:32:58.652Z,68.53
2023-01-11T13:35:57.035Z,69.81
2023-01-11T13:38:49.917Z,69.80
2023-01-11T13:41:24.100Z,70.10
2023-01-11T13:44:10.791Z,69.46
2023-01-11T13:46:49.647Z,68.55
2023-01-11T13:49:30.213Z,68.74
2023-01-11T13:52:00.396Z,69.24
2023-01-11T13:54:38.323Z,69.54
2023-01-11T13:57:30.460Z,69.50
2023-01-11T14:00:10.073Z,69.23
2023-01-11T14:02:46.354Z,69.33
2023-01-11T14:05:19.082Z,69.69
2023-01-11T14:08:18.136Z,70.22
2023-01-11T14:11:10.948Z,70.68
2023-01-11T14:14:15.464Z,70.09
2023-01-11T14:16:59.768Z,69.95
2023-01-11T14:19:53.394Z,69.54
2023-01-11T14:22:59.054Z,69.13
2023-01-11T14:26:02.146Z,67.45
2023-01-11T14:28:52.117Z,67.90
2023-01-11T14:31:41.881Z,68.32
2023-01-11T14:34:26.460Z,68.62
2023-01-11T14:37:11.275Z,68.66
2023-01-11T14:40:01.911Z,68.45
2023-01-11T14:42:39.651Z,68.67
2023-01-11T14:45:20.710Z,68.78
2023-01-11T14:48:04.828Z,69.13
2023-01-11T14:50:58.867Z,69.25
2023-01-11T14:53:36.593Z,69.42
2023-01-11T14:56:05.500Z,69.76
2023-01-11T14:58:34.321Z,70.17
2023-01-11T15:01:10.165Z,70.62
2023-01-11T15:03:45.862Z,71.08
2023-01-11T15:06:17.253Z,71.23
2023-01-11T15:08:52.752Z,71.29
2023-01-11T15:11:33.241Z,71.58
2023-01-11T15:14:24.130Z,71.66
2023-01-11T15:17:13.877Z,71.77
2023-01-11T15:19:44.523Z,72.04
2023-01-11T15:22:31.230Z,72.25
2023-01-11T15:25:07.169Z,72.50
2023-01-11T15:27:40.126Z,72.69
2023-01-11T15:30:32.198Z,72.82
2023-01-11T15:33:19.383Z,73.04
2023-01-11T15:35:57.242Z,73.60
2023-01-11T15:38:49.451Z,73.71
2023-01-11T15:42:05.071Z,73.91
2023-01-11T15:44:36.683Z,74.22
2023-01-11T15:47:16.650Z,74.59
2023-01-11T15:50:17.129Z,74.82
2023-01-11T15:53:04.685Z,75.10
2023-01-11T15:56:06.293Z,75.11
2023-01-11T15:58:56.124Z,75.07
2023-01-11T16:01:29.761Z,75.13
2023-01-11T16:04:32.403Z,75.26
2023-01-11T16:07:40.678Z,75.53
2023-01-11T16:10:31.482Z,75.65
2023-01-11T16:13:30.046Z,75.80
2023-01-11T16:16:19.329Z,76.41
2023-01-11T16:18:58.268Z,76.66
2023-01-11T16:21:36.591Z,76.85
2023-01-11T16:27:34.229Z,78.11
2023-01-11T16:30:03.541Z,78.39
2023-01-11T16:32:36.038Z,78.75
2023-01-11T16:35:18.658Z,78.88
2023-01-11T16:38:01.537Z,78.99
2023-01-11T16:40:38.159Z,79.73
2023-01-11T16:43:19.285Z,79.90
2023-01-11T16:45:54.452Z,80.01
2023-01-11T16:48:28.663Z,80.38
2023-01-11T16:51:06.021Z,80.55
2023-01-11T16:53:42.138Z,80.95
2023-01-11T16:56:18.906Z,80.95
2023-01-11T16:59:15.667Z,81.15
2023-01-11T17:02:04.037Z,82.13
2023-01-11T17:04:49.496Z,82.98
2023-01-11T17:07:25.533Z,82.77
2023-01-11T17:09:54.358Z,82.53
2023-01-11T17:12:27.789Z,82.81
2023-01-11T17:15:30.380Z,83.33
2023-01-11T17:18:05.084Z,83.63
2023-01-11T17:20:35.245Z,83.81
2023-01-11T17:23:06.518Z,84.26
2023-01-11T17:25:44.649Z,84.54
2023-01-11T17:28:20.115Z,85.04
2023-01-11T17:30:53.120Z,84.81
2023-01-11T17:33:28.512Z,84.51
2023-01-11T17:35:59.164Z,84.66
2023-01-11T17:38:28.598Z,84.82
2023-01-11T17:41:03.006Z,84.80
2023-01-11T17:43:50.555Z,84.98
2023-01-11T17:46:23.951Z,84.94
2023-01-11T17:48:56.280Z,85.12
2023-01-11T17:51:34.244Z,85.33
2023-01-11T17:54:03.025Z,85.55
2023-01-11T17:56:38.180Z,85.75
2023-01-11T17:59:18.940Z,85.73
2023-01-11T18:01:49.537Z,85.68
2023-01-11T18:04:21.745Z,85.84
2023-01-11T18:06:54.293Z,86.03
2023-01-11T18:09:36.521Z,86.66
2023-01-11T18:12:32.894Z,86.27
2023-01-11T18:15:04.906Z,86.18
2023-01-11T18:17:39.199Z,86.84
2023-01-11T18:20:10.948Z,87.20
2023-01-11T18:22:59.206Z,87.27
2023-01-11T18:25:30.675Z,87.58
2023-01-11T18:28:22.311Z,88.00
2023-01-11T18:31:02.182Z,87.71
2023-01-11T18:33:34.913Z,87.98
2023-01-11T18:36:04.875Z,87.93
2023-01-11T18:38:36.548Z,87.82
2023-01-11T18:41:28.501Z,87.83
2023-01-11T18:44:01.322Z,88.56
2023-01-11T18:46:30.480Z,88.68
2023-01-11T18:49:00.117Z,88.79
2023-01-11T18:51:34.426Z,88.99
2023-01-11T18:54:05.847Z,89.01
2023-01-11T18:56:34.955Z,89.54
2023-01-11T18:59:03.720Z,89.46
2023-01-11T19:01:37.630Z,88.95
2023-01-11T19:04:12.496Z,89.24
2023-01-11T19:07:01.388Z,89.56
2023-01-11T19:09:32.617Z,90.22
2023-01-11T19:12:02.244Z,90.28
2023-01-11T19:18:16.371Z,90.37
2023-01-11T19:20:43.939Z,90.19
2023-01-11T19:23:12.851Z,90.08
2023-01-11T19:25:41.166Z,90.18
2023-01-11T19:28:09.105Z,90.04
2023-01-11T19:30:38.819Z,90.11
2023-01-11T19:33:06.170Z,90.19
2023-01-11T19:35:33.762Z,90.49
2023-01-11T19:38:01.405Z,90.64
2023-01-11T19:40:28.856Z,90.90
2023-01-11T19:42:57.745Z,90.80
2023-01-11T19:45:24.955Z,90.84
2023-01-11T19:47:52.256Z,90.70
2023-01-11T19:50:19.949Z,90.58
2023-01-11T19:52:50.196Z,90.94
2023-01-11T19:55:17.515Z,90.96
2023-01-11T19:57:47.109Z,90.64
2023-01-11T20:00:14.796Z,90.58
2023-01-11T20:02:42.191Z,90.54
2023-01-11T20:05:09.539Z,90.65
2023-01-11T20:07:36.694Z,90.55
2023-01-11T20:10:04.281Z,90.48
2023-01-11T20:12:31.736Z,90.25
2023-01-11T20:15:00.864Z,90.08
2023-01-11T20:17:32.639Z,89.90
2023-01-11T20:20:00.288Z,89.82
2023-01-11T20:22:29.023Z,90.25
2023-01-11T20:25:00.098Z,90.11
2023-01-11T20:27:33.681Z,89.93
2023-01-11T20:30:01.741Z,89.37
2023-01-11T20:32:40.831Z,89.33
2023-01-11T20:35:09.996Z,89.50
2023-01-11T20:37:37.533Z,89.53
2023-01-11T20:40:07.460Z,89.74
2023-01-11T20:42:34.903Z,89.64
2023-01-11T20:45:02.163Z,89.73
2023-01-11T20:47:29.340Z,89.68
2023-01-11T20:49:56.468Z,90.23
2023-01-11T20:52:23.628Z,90.16
2023-01-11T20:54:50.982Z,90.28
2023-01-11T20:57:18.235Z,90.43
2023-01-11T20:59:45.260Z,90.80
2023-01-11T21:02:13.065Z,91.08
2023-01-11T21:04:40.196Z,91.16
2023-01-11T21:07:07.331Z,91.39
2023-01-11T21:09:34.385Z,91.38
2023-01-11T21:12:02.499Z,91.33
2023-01-11T21:14:30.748Z,91.59
2023-01-11T21:16:57.965Z,91.78
2023-01-11T21:19:25.815Z,91.95
2023-01-11T21:21:53.471Z,92.25
2023-01-11T21:24:21.733Z,91.88
2023-01-11T21:26:48.774Z,92.17
2023-01-11T21:29:15.950Z,92.21
2023-01-11T21:31:43.189Z,92.12
2023-01-11T21:34:12.037Z,92.01
2023-01-11T21:36:39.919Z,91.79
2023-01-11T21:39:07.800Z,91.78
2023-01-11T21:41:53.291Z,92.20
2023-01-11T21:44:22.932Z,92.40
2023-01-11T21:46:50.988Z,92.22
2023-01-11T21:49:22.088Z,92.15
2023-01-11T21:55:18.065Z,92.19
2023-01-11T21:57:46.703Z,92.13
2023-01-11T22:00:17.222Z,91.84
2023-01-11T22:02:51.958Z,91.78
2023-01-11T22:05:24.005Z,92.07
2023-01-11T22:07:56.448Z,92.19
2023-01-11T22:10:30.201Z,91.95
2023-01-11T22:12:59.538Z,91.92
2023-01-11T22:15:33.639Z,93.04
2023-01-11T22:18:02.285Z,93.61
2023-01-11T22:20:31.725Z,93.94
2023-01-11T22:23:01.163Z,93.62
2023-01-11T22:25:32.488Z,93.99
2023-01-11T22:28:04.124Z,94.08
2023-01-11T22:30:36.201Z,93.88
2023-01-11T22:33:10.430Z,94.06
2023-01-11T22:35:38.993Z,94.20
2023-01-11T22:38:07.491Z,93.93
2023-01-11T22:40:36.444Z,94.56
2023-01-11T22:43:05.045Z,94.51
2023-01-11T22:45:33.651Z,94.44
2023-01-11T22:48:07.392Z,94.41
2023-01-11T22:50:43.955Z,94.85
2023-01-11T22:53:14.969Z,94.95
2023-01-11T22:55:43.856Z,95.00
2023-01-11T22:58:12.861Z,94.94
2023-01-11T23:00:43.778Z,94.84
2023-01-11T23:03:15.850Z,94.74
2023-01-11T23:05:46.528Z,95.23
2023-01-11T23:08:16.635Z,95.05
2023-01-11T23:10:45.355Z,94.71
2023-01-11T23:13:32.628Z,94.33
2023-01-11T23:16:01.288Z,93.87
2023-01-11T23:18:32.493Z,93.77
2023-01-11T23:21:05.522Z,93.72
2023-01-11T23:23:34.215Z,94.19
2023-01-11T23:26:02.758Z,94.45
2023-01-11T23:28:33.206Z,94.61
2023-01-11T23:31:12.319Z,94.85
2023-01-11T23:33:43.461Z,95.10
2023-01-11T23:36:12.408Z,95.21
2023-01-11T23:38:44.123Z,95.18
2023-01-11T23:41:36.911Z,95.20
2023-01-11T23:44:09.395Z,96.30
2023-01-11T23:47:00.949Z,95.88
2023-01-11T23:49:33.461Z,95.46
2023-01-11T23:52:02.581Z,95.93
2023-01-11T23:54:33.971Z,96.19
2023-01-11T23:57:04.491Z,96.31
2023-01-11T23:59:36.146Z,96.55
